This is the latest recevied weather packets stored in our database for station/object W1LBM. If no packets are shown the sender has not sent any weather packets the latest 1 day(s).
| Time | Temp. | Humidity | Pressure | Rain* | Wind** | Luminosity | Snow |
|---|---|---|---|---|---|---|---|
| 1778088290 | 20° C | 67% | 1012.3 hPa | 0 mm | - | 163 W/m² | - |
| 1778087986 | 20° C | 66% | 1012.5 hPa | 0 mm | - | 204 W/m² | - |
| 1778087078 | 20.56° C | 66% | 1012.3 hPa | 0 mm | - | 224 W/m² | - |
| 1778085566 | 20.56° C | 64% | 1012.4 hPa | 0 mm | - | 331 W/m² | - |
| 1778084659 | 21.11° C | 63% | 1012.9 hPa | 0 mm | - | 329 W/m² | - |
| 1778084356 | 21.11° C | 63% | 1012.9 hPa | 0 mm | - | 279 W/m² | - |
| 1778081417 | 21.67° C | 62% | 1013.2 hPa | 0 mm | - | 296 W/m² | - |
| 1778080812 | 21.11° C | 65% | 1013.5 hPa | 0 mm | - | 448 W/m² | - |
| 1778080509 | 21.67° C | 64% | 1013.5 hPa | 0 mm | - | 501 W/m² | - |
| 1778078690 | 20° C | 67% | 1013.4 hPa | 0 mm | - | 285 W/m² | - |
| 1778077481 | 20.56° C | 65% | 1013.4 hPa | 0 mm | - | 261 W/m² | - |
| 1778076575 | 21.11° C | 63% | 1013.3 hPa | 0 mm | - | 325 W/m² | - |
| 1778075968 | 20.56° C | 66% | 1013.6 hPa | 0 mm | - | 345 W/m² | - |
| 1778073239 | 19.44° C | 70% | 1014.1 hPa | 0 mm | - | 232 W/m² | - |
| 1778072029 | 18.33° C | 74% | 1014 hPa | 0 mm | - | 185 W/m² | - |
| 1778071727 | 17.78° C | 76% | 1014 hPa | 0 mm | - | 179 W/m² | - |
| 1778069608 | 17.22° C | 80% | 1013.8 hPa | 0 mm | - | 147 W/m² | - |
| 1778069003 | 16.67° C | 81% | 1014 hPa | 0 mm | - | 133 W/m² | - |
| 1778068700 | 16.67° C | 81% | 1014.2 hPa | 0 mm | - | 144 W/m² | - |
| 1778068096 | 15.56° C | 85% | 1014.3 hPa | 0 mm | - | 121 W/m² | - |
| 1778067492 | 15.56° C | 84% | 1014.3 hPa | 0 mm | - | 41 W/m² | - |
| 1778066583 | 15.56° C | 85% | 1014.5 hPa | 0 mm | - | 130 W/m² | - |
| 1778066280 | 15.56° C | 85% | 1014.5 hPa | 0 mm | - | 132 W/m² | - |
| 1778065675 | 15.56° C | 85% | 1014.2 hPa | 0 mm | - | 125 W/m² | - |
| 1778065069 | 14.44° C | 89% | 1014.2 hPa | 0 mm | - | 70 W/m² | - |
* Rain latest hour (hover to see other rain measurements)
** Current wind speed in m/s (hover to see current wind gust speed)